Time;durP1;ratioP1;P1;durP2;ratioP2;P2;SDS_P1;SDS_P2;PMS_P1;PMS_P2;Temp;Humidity;BMP_temperature;BMP_pressure;BME280_temperature;BME280_humidity;BME280_pressure;Samples;Min_cycle;Max_cycle;Signal;HPM_P1;HPM_P2
2023/03/21 00:01:48;;;;;;;9.87;6.50;;;9.40;99.90;;;;;;5192827;28;20180;-51
2023/03/21 00:04:19;;;;;;;10.77;6.07;;;9.40;99.90;;;;;;5174696;28;20199;-50
2023/03/21 00:06:51;;;;;;;7.13;6.47;;;9.30;99.90;;;;;;5173011;28;20432;-52
2023/03/21 00:09:22;;;;;;;8.03;6.80;;;9.30;99.90;;;;;;5177282;28;20538;-51
2023/03/21 00:11:53;;;;;;;8.33;6.40;;;9.30;99.90;;;;;;5176129;28;20427;-51
2023/03/21 00:14:24;;;;;;;18.40;7.00;;;9.30;99.90;;;;;;5180300;28;20935;-51
2023/03/21 00:16:56;;;;;;;6.40;5.87;;;9.20;99.90;;;;;;5180112;28;20471;-50
2023/03/21 00:19:27;;;;;;;11.33;6.77;;;9.30;99.90;;;;;;5177753;28;20454;-49
2023/03/21 00:22:00;;;;;;;6.80;5.73;;;9.40;99.90;;;;;;5167680;28;20428;-47
2023/03/21 00:24:31;;;;;;;13.93;6.33;;;9.40;99.90;;;;;;5179422;28;20431;-50
2023/03/21 00:27:02;;;;;;;7.90;6.53;;;9.20;99.90;;;;;;5173015;28;20499;-50
2023/03/21 00:29:33;;;;;;;6.93;6.23;;;9.20;99.90;;;;;;5177656;28;20220;-50
2023/03/21 00:32:03;;;;;;;8.43;6.40;;;9.20;99.90;;;;;;5177205;28;20563;-51
2023/03/21 00:34:34;;;;;;;12.53;6.00;;;9.20;99.90;;;;;;5171661;28;20184;-50
2023/03/21 00:37:06;;;;;;;9.60;7.00;;;9.20;99.90;;;;;;5186473;28;20215;-50
2023/03/21 00:39:37;;;;;;;9.20;5.10;;;9.20;99.90;;;;;;5181650;28;20249;-50
2023/03/21 00:42:08;;;;;;;6.20;5.70;;;9.10;99.90;;;;;;5176185;28;20432;-49
2023/03/21 00:44:39;;;;;;;10.40;6.83;;;9.20;99.90;;;;;;5173732;28;20188;-48
2023/03/21 00:47:11;;;;;;;6.17;5.60;;;9.10;99.90;;;;;;5171268;28;20219;-49
2023/03/21 00:49:42;;;;;;;8.33;6.07;;;9.10;99.90;;;;;;5170097;28;20223;-49
2023/03/21 00:52:12;;;;;;;10.50;6.53;;;9.10;99.90;;;;;;5178232;28;20798;-49
2023/03/21 00:54:43;;;;;;;8.57;6.57;;;9.10;99.90;;;;;;5178746;28;20200;-49
2023/03/21 00:57:13;;;;;;;9.10;6.90;;;9.10;99.90;;;;;;5174394;28;20208;-51
2023/03/21 00:59:45;;;;;;;6.83;5.90;;;9.10;99.90;;;;;;5180967;28;20231;-49
2023/03/21 01:02:21;;;;;;;8.90;7.17;;;9.10;99.90;;;;;;5172312;28;20579;-48
2023/03/21 01:04:53;;;;;;;9.97;8.60;;;9.10;99.90;;;;;;5168822;28;20489;-50
2023/03/21 01:07:24;;;;;;;7.70;7.00;;;9.10;99.90;;;;;;5175545;28;21018;-49
2023/03/21 01:09:54;;;;;;;10.20;6.90;;;9.10;99.90;;;;;;5177155;28;20471;-49
2023/03/21 01:12:26;;;;;;;8.40;7.30;;;9.10;99.90;;;;;;5175000;28;20184;-50
2023/03/21 01:14:57;;;;;;;12.20;7.40;;;9.20;99.90;;;;;;5178681;28;20173;-51
2023/03/21 01:17:27;;;;;;;8.57;6.47;;;9.30;99.90;;;;;;5177514;28;20456;-50
2023/03/21 01:19:58;;;;;;;9.87;6.80;;;9.20;99.90;;;;;;5177900;28;20264;-50
2023/03/21 01:22:28;;;;;;;15.10;8.27;;;9.20;99.90;;;;;;5180734;28;20192;-50
2023/03/21 01:24:59;;;;;;;12.23;9.17;;;9.10;99.90;;;;;;5182281;28;20231;-47
2023/03/21 01:27:30;;;;;;;10.10;8.37;;;9.20;99.90;;;;;;5179855;28;20180;-50
2023/03/21 01:30:00;;;;;;;11.10;8.80;;;9.20;99.90;;;;;;5180248;28;20302;-50
2023/03/21 01:32:31;;;;;;;18.17;11.13;;;9.20;99.90;;;;;;5171724;28;20269;-51
2023/03/21 01:35:01;;;;;;;18.30;11.80;;;9.10;99.90;;;;;;5176904;28;20181;-50
2023/03/21 01:37:32;;;;;;;18.00;12.80;;;9.10;99.90;;;;;;5169995;28;20200;-49
2023/03/21 01:40:04;;;;;;;18.37;11.37;;;9.10;99.90;;;;;;5182007;28;20278;-50
2023/03/21 01:42:34;;;;;;;14.90;11.23;;;9.10;99.90;;;;;;5174234;28;20173;-49
2023/03/21 01:45:44;;;;;;;19.20;12.97;;;9.10;99.90;;;;;;5185625;28;20438;-49
2023/03/21 01:48:15;;;;;;;14.70;11.80;;;9.10;99.90;;;;;;5177076;28;20214;-50
2023/03/21 01:50:46;;;;;;;30.23;11.40;;;9.10;99.90;;;;;;5178566;28;20466;-51
2023/03/21 01:53:20;;;;;;;18.40;12.23;;;9.10;99.90;;;;;;5169147;28;20591;-48
2023/03/21 01:55:51;;;;;;;22.03;12.57;;;9.10;99.90;;;;;;5171451;28;20970;-52
2023/03/21 01:58:23;;;;;;;16.00;11.90;;;9.10;99.90;;;;;;5171893;28;20570;-50
2023/03/21 02:00:55;;;;;;;14.70;12.17;;;9.00;99.90;;;;;;5169804;28;20223;-49
2023/03/21 02:03:28;;;;;;;19.10;13.40;;;9.00;99.90;;;;;;5174588;28;20518;-49
2023/03/21 02:06:01;;;;;;;19.73;13.57;;;9.00;99.90;;;;;;5173780;28;20518;-49
2023/03/21 02:08:32;;;;;;;16.13;14.33;;;8.90;99.90;;;;;;5176809;28;20591;-49
2023/03/21 02:11:03;;;;;;;18.60;15.10;;;8.90;99.90;;;;;;5170399;28;21133;-49
2023/03/21 02:13:35;;;;;;;22.17;16.60;;;8.90;99.90;;;;;;5179198;28;20447;-51
2023/03/21 02:16:20;;;;;;;25.07;17.20;;;9.00;99.90;;;;;;5172984;28;20185;-47
2023/03/21 02:19:03;;;;;;;21.90;17.63;;;9.00;99.90;;;;;;5165312;28;20479;-48
2023/03/21 02:21:40;;;;;;;24.63;18.17;;;9.00;99.90;;;;;;5167720;28;20428;-50
2023/03/21 02:24:36;;;;;;;22.47;16.90;;;9.00;99.90;;;;;;5178215;28;20780;-50
2023/03/21 02:27:20;;;;;;;26.20;17.00;;;8.90;99.90;;;;;;5167577;28;20809;-49
2023/03/21 02:30:03;;;;;;;34.43;19.73;;;9.00;99.90;;;;;;5159807;28;20468;-48
2023/03/21 02:33:01;;;;;;;24.77;17.50;;;9.00;99.90;;;;;;5172675;28;20440;-50
2023/03/21 02:36:00;;;;;;;26.47;20.07;;;8.90;99.90;;;;;;5176887;28;20458;-48
2023/03/21 02:38:39;;;;;;;27.83;18.77;;;8.90;99.90;;;;;;5171055;28;20559;-50
2023/03/21 02:41:39;;;;;;;27.03;19.17;;;8.90;99.90;;;;;;5171632;28;20463;-51
2023/03/21 02:44:13;;;;;;;30.63;20.30;;;8.90;99.90;;;;;;5167416;28;20786;-48
2023/03/21 02:47:00;;;;;;;28.20;20.73;;;8.80;99.90;;;;;;5168710;28;20444;-47
2023/03/21 02:49:56;;;;;;;35.20;21.27;;;8.80;99.90;;;;;;5166825;28;20983;-50
2023/03/21 02:52:30;;;;;;;30.07;20.30;;;8.90;99.90;;;;;;5177960;28;20466;-48
2023/03/21 02:55:03;;;;;;;28.20;20.43;;;8.80;99.90;;;;;;5177099;28;20520;-49
2023/03/21 02:57:34;;;;;;;33.13;22.33;;;8.70;99.90;;;;;;5177783;28;20469;-51
2023/03/21 03:00:09;;;;;;;33.10;21.13;;;8.80;99.90;;;;;;5163773;28;20456;-49
2023/03/21 03:02:40;;;;;;;27.33;20.67;;;8.70;99.90;;;;;;5172658;28;20177;-49
2023/03/21 03:05:17;;;;;;;30.73;21.80;;;8.70;99.90;;;;;;5160812;28;21034;-50
2023/03/21 03:08:08;;;;;;;34.30;21.90;;;8.70;99.90;;;;;;5178620;28;20239;-48
2023/03/21 03:11:05;;;;;;;29.43;21.60;;;8.60;99.90;;;;;;5172276;28;20468;-49
2023/03/21 03:14:04;;;;;;;37.47;22.83;;;8.70;99.90;;;;;;5175278;28;20493;-50
2023/03/21 03:16:55;;;;;;;31.10;20.37;;;8.60;99.90;;;;;;5167573;28;20443;-49
2023/03/21 03:19:29;;;;;;;35.83;19.50;;;8.60;99.90;;;;;;5173366;28;20491;-49
2023/03/21 03:22:02;;;;;;;34.60;21.10;;;8.70;99.90;;;;;;5175207;28;20441;-49
2023/03/21 03:24:41;;;;;;;31.57;19.97;;;8.70;99.90;;;;;;5175020;28;20428;-50
2023/03/21 03:27:21;;;;;;;32.77;20.20;;;8.70;99.90;;;;;;5172717;28;20970;-50
2023/03/21 03:29:53;;;;;;;31.60;21.70;;;8.60;99.90;;;;;;5178568;28;20443;-48
2023/03/21 03:32:35;;;;;;;33.17;20.87;;;8.60;99.90;;;;;;5184313;28;20436;-50
2023/03/21 03:35:06;;;;;;;33.03;21.80;;;8.60;99.90;;;;;;5172724;28;20931;-48
2023/03/21 03:37:39;;;;;;;29.77;22.17;;;8.60;99.90;;;;;;5185813;28;20461;-48
2023/03/21 03:40:27;;;;;;;30.03;21.60;;;8.60;99.90;;;;;;5181997;28;20859;-49
2023/03/21 03:43:04;;;;;;;42.10;21.90;;;8.60;99.90;;;;;;5191278;28;20443;-50
2023/03/21 03:45:42;;;;;;;39.40;22.10;;;8.60;99.90;;;;;;5179958;28;20439;-49
2023/03/21 03:48:27;;;;;;;33.00;22.10;;;8.50;99.90;;;;;;5177575;28;20450;-49
2023/03/21 03:51:06;;;;;;;34.40;23.17;;;8.60;99.90;;;;;;5183373;28;20483;-47
2023/03/21 03:53:42;;;;;;;35.03;20.73;;;8.60;99.90;;;;;;5189062;28;20432;-46
2023/03/21 03:56:13;;;;;;;31.67;23.10;;;8.60;99.90;;;;;;5175836;28;20461;-48
2023/03/21 03:58:44;;;;;;;31.67;21.80;;;8.60;99.90;;;;;;5175997;28;20948;-45
2023/03/21 04:01:14;;;;;;;41.37;24.40;;;8.50;99.90;;;;;;5176888;28;20181;-45
2023/03/21 04:03:50;;;;;;;34.47;23.67;;;8.40;99.90;;;;;;5181920;28;20188;-45
2023/03/21 04:06:21;;;;;;;32.00;22.67;;;8.30;99.90;;;;;;5187856;28;20180;-46
2023/03/21 04:08:51;;;;;;;35.30;22.70;;;8.30;99.90;;;;;;5179382;28;20470;-46
2023/03/21 04:11:22;;;;;;;35.90;23.47;;;8.30;99.90;;;;;;5175532;28;20544;-46
2023/03/21 04:13:53;;;;;;;45.07;24.07;;;8.30;99.90;;;;;;5173737;28;20185;-45
2023/03/21 04:16:24;;;;;;;38.33;25.10;;;8.30;99.90;;;;;;5186660;28;20438;-47
2023/03/21 04:18:54;;;;;;;49.00;24.50;;;8.30;99.90;;;;;;5168086;28;20255;-46
2023/03/21 04:21:26;;;;;;;36.23;24.43;;;8.30;99.90;;;;;;5183104;28;20817;-45
2023/03/21 04:23:56;;;;;;;31.30;22.30;;;8.30;99.90;;;;;;5188868;28;20176;-45
2023/03/21 04:26:31;;;;;;;38.90;22.13;;;8.40;99.90;;;;;;5178453;28;20444;-47
2023/03/21 04:29:02;;;;;;;32.33;21.80;;;8.40;99.90;;;;;;5180539;28;20204;-47
2023/03/21 04:31:34;;;;;;;38.13;21.40;;;8.40;99.90;;;;;;5185721;28;20443;-46
2023/03/21 04:34:11;;;;;;;38.63;22.50;;;8.40;99.90;;;;;;5177589;28;20438;-45
2023/03/21 04:36:45;;;;;;;36.60;22.30;;;8.40;99.90;;;;;;5182000;28;20450;-46
2023/03/21 04:39:16;;;;;;;31.50;22.53;;;8.50;99.90;;;;;;5184741;28;20477;-46
2023/03/21 04:41:47;;;;;;;37.40;22.13;;;8.40;99.90;;;;;;5185680;28;20436;-46
2023/03/21 04:44:18;;;;;;;36.57;22.37;;;8.40;99.90;;;;;;5197743;28;20485;-46
2023/03/21 04:46:49;;;;;;;30.00;21.70;;;8.40;99.90;;;;;;5178806;28;20424;-46
2023/03/21 04:49:20;;;;;;;33.63;21.00;;;8.50;99.90;;;;;;5173163;28;20212;-46
2023/03/21 04:51:50;;;;;;;38.10;21.40;;;8.40;99.90;;;;;;5185795;28;20493;-46
2023/03/21 04:54:21;;;;;;;30.30;22.33;;;8.40;99.90;;;;;;5179085;28;20192;-46
2023/03/21 04:56:52;;;;;;;41.03;21.97;;;8.40;99.90;;;;;;5182452;28;20181;-46
2023/03/21 04:59:23;;;;;;;35.17;22.87;;;8.40;99.90;;;;;;5179437;28;20664;-47
2023/03/21 05:01:55;;;;;;;36.07;22.10;;;8.30;99.90;;;;;;5187306;28;20184;-46
2023/03/21 05:04:27;;;;;;;35.17;22.40;;;8.40;99.90;;;;;;5181737;28;20954;-47
2023/03/21 05:06:58;;;;;;;33.53;23.30;;;8.30;99.90;;;;;;5186416;28;20435;-49
2023/03/21 05:09:28;;;;;;;37.43;22.87;;;8.30;99.90;;;;;;5191773;28;20454;-46
2023/03/21 05:11:59;;;;;;;31.33;21.80;;;8.30;99.90;;;;;;5182527;28;20599;-46
2023/03/21 05:14:30;;;;;;;34.63;21.00;;;8.30;99.90;;;;;;5185465;28;20187;-47
2023/03/21 05:17:03;;;;;;;36.03;22.43;;;8.30;99.90;;;;;;5174610;28;20184;-46
2023/03/21 05:19:34;;;;;;;40.10;23.50;;;8.30;99.90;;;;;;5181792;28;20603;-45
2023/03/21 05:22:07;;;;;;;38.33;23.13;;;8.30;99.90;;;;;;5171542;28;20532;-47
2023/03/21 05:24:38;;;;;;;36.50;23.10;;;8.30;99.90;;;;;;5181912;28;20668;-46
2023/03/21 05:27:08;;;;;;;35.50;22.70;;;8.30;99.90;;;;;;5180636;28;20487;-46
2023/03/21 05:29:39;;;;;;;38.97;23.27;;;8.40;99.90;;;;;;5173548;28;20708;-47
2023/03/21 05:32:09;;;;;;;34.23;22.23;;;8.40;99.90;;;;;;5195393;28;20187;-46
2023/03/21 05:34:40;;;;;;;33.27;23.73;;;8.40;99.90;;;;;;5182509;28;20674;-46
2023/03/21 05:37:11;;;;;;;35.80;21.60;;;8.40;99.90;;;;;;5176189;28;20236;-46
2023/03/21 05:39:41;;;;;;;32.80;22.77;;;8.40;99.90;;;;;;5187147;28;20193;-46
2023/03/21 05:42:12;;;;;;;36.33;23.30;;;8.40;99.90;;;;;;5191978;28;20542;-47
2023/03/21 05:44:43;;;;;;;35.57;20.80;;;8.40;99.90;;;;;;5189876;28;20184;-49
2023/03/21 05:47:15;;;;;;;36.67;22.53;;;8.40;99.90;;;;;;5183678;28;20180;-48
2023/03/21 05:49:46;;;;;;;42.07;24.33;;;8.50;99.90;;;;;;5182514;28;20592;-47
2023/03/21 05:52:16;;;;;;;34.77;22.20;;;8.50;99.90;;;;;;5177447;28;20432;-47
2023/03/21 05:54:47;;;;;;;34.50;22.50;;;8.60;99.90;;;;;;5168274;28;20583;-47
2023/03/21 05:57:18;;;;;;;36.77;22.50;;;8.60;99.90;;;;;;5177738;28;20728;-47
2023/03/21 05:59:49;;;;;;;36.90;23.50;;;8.70;99.90;;;;;;5181986;28;20200;-46
2023/03/21 06:02:19;;;;;;;39.03;23.37;;;8.80;99.90;;;;;;5187352;28;20223;-47
2023/03/21 06:04:50;;;;;;;42.67;23.50;;;8.80;99.90;;;;;;5172456;28;20173;-46
2023/03/21 06:07:21;;;;;;;38.80;22.20;;;8.90;99.90;;;;;;5173613;28;20212;-46
2023/03/21 06:09:52;;;;;;;34.83;23.53;;;9.00;99.90;;;;;;5181582;28;20285;-46
2023/03/21 06:12:22;;;;;;;30.33;21.23;;;8.90;99.90;;;;;;5182315;28;20598;-47
2023/03/21 06:14:53;;;;;;;37.73;23.63;;;9.00;99.90;;;;;;5178655;28;20177;-46
2023/03/21 06:17:24;;;;;;;40.63;24.90;;;9.00;99.90;;;;;;5167428;28;20204;-51
2023/03/21 06:19:54;;;;;;;44.83;24.50;;;9.00;99.90;;;;;;5177165;28;20215;-46
2023/03/21 06:22:27;;;;;;;39.40;23.10;;;8.90;99.90;;;;;;5181356;28;20287;-46
2023/03/21 06:24:58;;;;;;;38.57;24.90;;;8.90;99.90;;;;;;5185133;28;20188;-46
2023/03/21 06:27:28;;;;;;;36.27;23.77;;;9.00;99.90;;;;;;5178432;28;20428;-46
2023/03/21 06:29:59;;;;;;;39.00;21.30;;;9.00;99.90;;;;;;5168596;28;20212;-45
2023/03/21 06:32:30;;;;;;;43.17;23.87;;;9.10;99.90;;;;;;5178094;28;20712;-46
2023/03/21 06:35:01;;;;;;;37.97;22.83;;;9.10;99.90;;;;;;5178289;28;20440;-47
2023/03/21 06:37:31;;;;;;;38.70;23.47;;;9.20;99.90;;;;;;5178326;28;20687;-45
2023/03/21 06:40:04;;;;;;;37.10;22.50;;;9.10;99.90;;;;;;5181243;28;20227;-45
2023/03/21 06:42:35;;;;;;;36.20;23.57;;;9.00;99.90;;;;;;5182621;28;20176;-47
2023/03/21 06:45:06;;;;;;;35.13;22.57;;;9.10;99.90;;;;;;5184255;28;20438;-45
2023/03/21 06:47:37;;;;;;;44.40;23.97;;;9.10;99.90;;;;;;5171239;28;20440;-46
2023/03/21 06:50:08;;;;;;;33.47;23.10;;;9.00;99.90;;;;;;5150098;28;20609;-46
2023/03/21 06:52:39;;;;;;;36.53;22.77;;;9.10;99.90;;;;;;5174784;28;20193;-45
2023/03/21 06:55:09;;;;;;;33.17;21.73;;;9.20;99.90;;;;;;5184055;28;20445;-46
2023/03/21 06:57:40;;;;;;;49.00;24.50;;;9.20;99.90;;;;;;5167986;28;20636;-47
2023/03/21 07:00:11;;;;;;;37.73;23.00;;;9.30;99.90;;;;;;5181419;28;20676;-47
2023/03/21 07:02:41;;;;;;;34.00;22.03;;;9.30;99.90;;;;;;5193806;28;20184;-45
2023/03/21 07:05:12;;;;;;;38.87;23.43;;;9.30;99.90;;;;;;5170938;28;20942;-47
2023/03/21 07:07:43;;;;;;;44.53;23.70;;;9.40;99.90;;;;;;5184615;28;20196;-47
2023/03/21 07:10:14;;;;;;;38.37;22.50;;;9.40;99.90;;;;;;5177580;28;20574;-45
2023/03/21 07:12:45;;;;;;;37.27;23.53;;;9.40;99.90;;;;;;5187351;28;20184;-46
2023/03/21 07:15:16;;;;;;;34.33;21.83;;;9.40;99.90;;;;;;5183641;28;20530;-46
2023/03/21 07:17:46;;;;;;;43.63;26.00;;;9.40;99.90;;;;;;5186715;28;20211;-46
2023/03/21 07:20:17;;;;;;;42.60;26.80;;;9.40;99.90;;;;;;5183885;28;20450;-45
2023/03/21 07:22:48;;;;;;;36.23;22.47;;;9.40;99.90;;;;;;5169432;28;20209;-47
2023/03/21 07:25:19;;;;;;;37.47;23.60;;;9.40;99.90;;;;;;5170434;28;20901;-46
2023/03/21 07:27:49;;;;;;;37.13;23.17;;;9.40;99.90;;;;;;5174510;28;20199;-46
2023/03/21 07:30:20;;;;;;;36.70;24.50;;;9.40;99.90;;;;;;5168102;28;20215;-46
2023/03/21 07:32:52;;;;;;;39.87;24.37;;;9.40;99.90;;;;;;5178379;28;20184;-46
2023/03/21 07:35:22;;;;;;;35.13;23.87;;;9.40;99.90;;;;;;5169990;28;20260;-47
2023/03/21 07:37:53;;;;;;;38.77;23.50;;;9.30;99.90;;;;;;5169397;28;20456;-46
2023/03/21 07:40:24;;;;;;;44.90;29.60;;;9.30;99.90;;;;;;5181314;28;20296;-47
2023/03/21 07:42:54;;;;;;;51.93;30.13;;;9.40;99.90;;;;;;5178088;28;20189;-46
2023/03/21 07:45:26;;;;;;;45.87;28.53;;;9.40;99.90;;;;;;5152907;28;20196;-45
2023/03/21 07:47:56;;;;;;;50.80;29.67;;;9.30;99.90;;;;;;5167711;28;20181;-46
2023/03/21 07:50:27;;;;;;;43.63;28.00;;;9.30;99.90;;;;;;5183623;28;20498;-46
2023/03/21 07:52:57;;;;;;;52.50;30.70;;;9.40;99.90;;;;;;5183075;28;20650;-47
2023/03/21 07:55:28;;;;;;;46.60;29.27;;;9.40;99.90;;;;;;5170654;28;20197;-46
2023/03/21 07:58:02;;;;;;;50.10;28.50;;;9.30;99.90;;;;;;5173372;28;20235;-46
2023/03/21 08:00:32;;;;;;;51.00;29.80;;;9.20;99.90;;;;;;5182800;28;20193;-46
2023/03/21 08:03:03;;;;;;;55.67;32.00;;;9.30;99.90;;;;;;5183491;28;20473;-47
2023/03/21 08:05:36;;;;;;;55.17;28.50;;;9.40;99.90;;;;;;5175203;28;20200;-47
2023/03/21 08:08:06;;;;;;;43.80;27.23;;;9.50;99.90;;;;;;5169101;28;20191;-46
2023/03/21 08:10:37;;;;;;;44.47;27.80;;;9.50;99.90;;;;;;5183576;28;20455;-47
2023/03/21 08:13:08;;;;;;;46.93;27.90;;;9.40;99.90;;;;;;5176752;28;20185;-47
2023/03/21 08:15:40;;;;;;;52.50;29.87;;;9.60;99.90;;;;;;5180131;28;20258;-47
2023/03/21 08:18:11;;;;;;;43.53;26.57;;;9.60;99.90;;;;;;5174298;28;20217;-47
2023/03/21 08:20:42;;;;;;;54.13;30.13;;;9.60;99.90;;;;;;5171172;28;21082;-47
2023/03/21 08:23:12;;;;;;;45.57;29.97;;;9.70;99.90;;;;;;5172224;28;20249;-46
2023/03/21 08:25:43;;;;;;;43.57;28.10;;;9.80;99.90;;;;;;5172275;28;20185;-45
2023/03/21 08:28:14;;;;;;;44.40;28.50;;;9.90;99.90;;;;;;5170356;28;20231;-45
2023/03/21 08:30:45;;;;;;;43.60;26.10;;;10.00;99.90;;;;;;5171173;28;20209;-47
2023/03/21 08:33:17;;;;;;;44.90;29.70;;;9.90;99.90;;;;;;5169827;28;20304;-46
2023/03/21 08:35:48;;;;;;;48.17;27.80;;;9.90;99.90;;;;;;5169504;28;20188;-46
2023/03/21 08:38:20;;;;;;;45.77;26.47;;;9.90;99.90;;;;;;5168962;28;20456;-46
2023/03/21 08:40:50;;;;;;;37.73;24.40;;;9.90;99.90;;;;;;5178898;28;20322;-46
2023/03/21 08:43:22;;;;;;;39.30;26.20;;;9.90;99.90;;;;;;5182292;28;20523;-45
2023/03/21 08:45:53;;;;;;;44.30;26.33;;;10.00;99.90;;;;;;5168167;28;20181;-46
2023/03/21 08:48:24;;;;;;;41.43;25.77;;;10.00;99.90;;;;;;5172868;28;20836;-45
2023/03/21 08:50:54;;;;;;;39.53;23.40;;;10.00;99.90;;;;;;5167569;28;20452;-46
2023/03/21 08:53:25;;;;;;;40.80;25.27;;;10.10;99.90;;;;;;5167355;28;20197;-46
2023/03/21 08:55:55;;;;;;;43.87;26.63;;;10.10;99.90;;;;;;5169079;28;20184;-56
2023/03/21 08:58:26;;;;;;;47.87;26.03;;;10.10;99.90;;;;;;5168770;28;20207;-47
2023/03/21 09:00:57;;;;;;;37.07;23.13;;;10.10;99.90;;;;;;5179523;28;20210;-46
2023/03/21 09:03:29;;;;;;;36.73;23.10;;;10.10;99.90;;;;;;5178485;28;20641;-47
2023/03/21 09:06:01;;;;;;;40.53;25.10;;;10.10;99.90;;;;;;5166951;28;20259;-47
2023/03/21 09:08:32;;;;;;;41.93;25.47;;;10.30;99.90;;;;;;5172632;28;20467;-46
2023/03/21 09:11:03;;;;;;;53.73;25.67;;;10.20;99.90;;;;;;5169283;28;20542;-46
2023/03/21 09:13:33;;;;;;;37.47;22.13;;;10.30;99.90;;;;;;5169549;28;20185;-47
2023/03/21 09:16:04;;;;;;;32.90;22.00;;;10.20;99.90;;;;;;5175718;28;20177;-47
2023/03/21 09:18:45;;;;;;;37.30;21.20;;;10.00;99.90;;;;;;5170666;28;20212;-47
2023/03/21 09:21:18;;;;;;;29.53;20.07;;;10.00;99.90;;;;;;5152206;28;20180;-46
2023/03/21 09:23:51;;;;;;;32.10;21.50;;;10.10;99.90;;;;;;5168317;28;20507;-46
2023/03/21 09:26:23;;;;;;;37.30;21.90;;;10.20;99.90;;;;;;5182518;28;20442;-45
2023/03/21 09:28:54;;;;;;;36.90;22.00;;;10.10;99.90;;;;;;5159731;28;20463;-45
2023/03/21 09:31:27;;;;;;;34.73;20.63;;;10.10;99.90;;;;;;5172567;28;20446;-47
2023/03/21 09:33:57;;;;;;;32.77;21.60;;;10.20;99.90;;;;;;5170381;28;20442;-46
2023/03/21 09:36:31;;;;;;;34.20;22.20;;;10.20;99.90;;;;;;5170589;28;20511;-45
2023/03/21 09:39:02;;;;;;;34.43;21.30;;;10.20;99.90;;;;;;5169190;28;20622;-44
2023/03/21 09:41:54;;;;;;;28.87;20.90;;;10.30;99.90;;;;;;5178562;28;20420;-46
2023/03/21 09:44:37;;;;;;;40.13;24.27;;;10.20;99.90;;;;;;5173961;28;20440;-46
2023/03/21 09:47:20;;;;;;;31.73;20.70;;;10.40;99.90;;;;;;5187570;28;20430;-52
2023/03/21 09:50:09;;;;;;;34.10;20.50;;;10.50;99.90;;;;;;5192014;23;20524;-50
2023/03/21 09:52:53;;;;;;;36.53;20.20;;;10.70;99.90;;;;;;5175868;28;21265;-51
2023/03/21 09:55:30;;;;;;;41.87;20.10;;;10.80;99.90;;;;;;5184684;28;20969;-49
2023/03/21 09:58:07;;;;;;;33.10;20.33;;;10.80;99.90;;;;;;5179631;28;20467;-50
2023/03/21 10:00:42;;;;;;;27.40;18.77;;;10.80;99.90;;;;;;5169473;28;20467;-50
2023/03/21 10:03:28;;;;;;;31.13;19.40;;;10.90;99.90;;;;;;5166109;28;20919;-51
2023/03/21 10:06:02;;;;;;;25.17;18.97;;;10.90;99.90;;;;;;5166441;28;20873;-51
2023/03/21 10:08:40;;;;;;;27.83;18.53;;;11.10;99.90;;;;;;5161754;28;20803;-51
2023/03/21 10:11:14;;;;;;;32.37;19.10;;;11.30;99.90;;;;;;5159968;28;20849;-50
2023/03/21 10:13:54;;;;;;;28.23;18.90;;;11.40;99.90;;;;;;5165591;28;20432;-49
2023/03/21 10:16:39;;;;;;;29.97;17.87;;;11.40;99.90;;;;;;5164076;28;20436;-49
2023/03/21 10:19:13;;;;;;;33.90;18.60;;;11.40;99.90;;;;;;5152772;28;20472;-49
2023/03/21 10:21:48;;;;;;;31.80;18.47;;;11.40;99.90;;;;;;5158761;28;20443;-48
2023/03/21 10:24:24;;;;;;;42.60;19.57;;;11.20;99.90;;;;;;5161779;28;20420;-48
2023/03/21 10:26:55;;;;;;;33.23;17.73;;;11.20;99.90;;;;;;5166572;28;20416;-49
2023/03/21 10:29:31;;;;;;;32.63;18.10;;;11.20;99.90;;;;;;5165644;28;20491;-51
2023/03/21 10:32:02;;;;;;;30.93;18.33;;;11.30;99.90;;;;;;5164346;28;20443;-52
2023/03/21 10:34:40;;;;;;;29.23;16.03;;;11.40;99.90;;;;;;5160332;28;20454;-49
2023/03/21 10:37:13;;;;;;;29.93;16.83;;;11.70;99.90;;;;;;5163171;28;20534;-51
2023/03/21 10:39:51;;;;;;;29.37;18.90;;;11.80;99.90;;;;;;5165798;28;20468;-49
2023/03/21 10:42:23;;;;;;;27.50;17.70;;;12.00;99.90;;;;;;5167665;28;20968;-50
2023/03/21 10:44:58;;;;;;;29.07;18.33;;;12.00;99.90;;;;;;5171024;28;20481;-50
2023/03/21 10:47:32;;;;;;;27.20;16.87;;;12.20;99.90;;;;;;5168607;28;20451;-50
2023/03/21 10:50:11;;;;;;;27.23;18.03;;;12.30;99.90;;;;;;5167822;28;20494;-51
2023/03/21 10:52:52;;;;;;;29.60;18.97;;;12.10;99.90;;;;;;5165428;28;20447;-50
2023/03/21 10:55:31;;;;;;;30.87;19.00;;;12.10;99.90;;;;;;5162148;28;20459;-50
2023/03/21 10:58:07;;;;;;;31.87;17.37;;;11.90;99.90;;;;;;5162087;28;20495;-50
2023/03/21 11:00:40;;;;;;;30.60;18.83;;;11.80;99.90;;;;;;5165185;28;20498;-49
2023/03/21 11:03:31;;;;;;;31.10;15.50;;;12.00;99.90;;;;;;5171591;28;20425;-49
2023/03/21 11:06:25;;;;;;;29.33;18.00;;;12.00;99.90;;;;;;5158566;28;20432;-50
2023/03/21 11:09:23;;;;;;;31.53;17.30;;;12.00;99.90;;;;;;5168133;28;20444;-49
2023/03/21 11:12:03;;;;;;;23.00;16.57;;;11.90;99.90;;;;;;5165662;28;20809;-51
2023/03/21 11:14:40;;;;;;;27.90;16.43;;;11.90;99.90;;;;;;5166102;28;20454;-49
2023/03/21 11:17:20;;;;;;;35.80;19.27;;;12.10;99.90;;;;;;5167794;28;20526;-50
2023/03/21 11:19:56;;;;;;;27.03;16.47;;;12.10;99.90;;;;;;5157075;28;20467;-48
2023/03/21 11:22:38;;;;;;;38.13;18.53;;;12.00;99.90;;;;;;5160743;28;20789;-49
2023/03/21 11:25:30;;;;;;;28.10;17.80;;;11.90;99.90;;;;;;5166971;28;20521;-50
2023/03/21 11:28:15;;;;;;;30.40;17.97;;;11.90;99.90;;;;;;5166276;28;20484;-51
2023/03/21 11:31:05;;;;;;;32.37;19.13;;;11.90;99.90;;;;;;5167269;28;20470;-50
2023/03/21 11:34:00;;;;;;;25.40;16.93;;;11.50;99.90;;;;;;5167251;28;20432;-48
2023/03/21 11:36:35;;;;;;;26.60;15.93;;;11.50;99.90;;;;;;5166023;28;20887;-50
2023/03/21 11:39:26;;;;;;;26.03;16.90;;;11.50;99.90;;;;;;5169146;28;20474;-52
2023/03/21 11:41:57;;;;;;;33.23;16.50;;;11.50;99.90;;;;;;5154787;28;20460;-51
2023/03/21 11:44:40;;;;;;;24.63;16.80;;;11.60;99.90;;;;;;5164066;28;20464;-50
2023/03/21 11:47:11;;;;;;;26.57;17.10;;;11.90;99.90;;;;;;5149303;28;20184;-51
2023/03/21 11:49:42;;;;;;;21.07;14.97;;;11.90;99.90;;;;;;5166624;28;20525;-50
2023/03/21 11:52:37;;;;;;;30.00;16.53;;;11.90;99.90;;;;;;5163628;28;20445;-49
2023/03/21 11:55:34;;;;;;;24.20;16.43;;;12.10;99.90;;;;;;5164987;28;20379;-50
2023/03/21 11:58:37;;;;;;;24.90;16.50;;;12.10;99.90;;;;;;5167856;28;20464;-50
2023/03/21 12:01:16;;;;;;;29.50;17.50;;;12.30;99.90;;;;;;5151443;28;20488;-50
2023/03/21 12:03:52;;;;;;;26.70;17.40;;;12.10;99.90;;;;;;5165871;28;20478;-52
2023/03/21 12:06:59;;;;;;;34.27;18.30;;;12.10;99.90;;;;;;5166726;28;20455;-51
2023/03/21 12:09:35;;;;;;;34.00;17.90;;;12.10;99.90;;;;;;5164337;28;20560;-49
2023/03/21 12:12:24;;;;;;;28.40;18.07;;;12.20;99.90;;;;;;5146995;28;20531;-49
2023/03/21 12:15:42;;;;;;;25.60;16.70;;;12.40;99.90;;;;;;5165631;28;20444;-49
2023/03/21 12:18:34;;;;;;;24.53;15.97;;;12.80;99.90;;;;;;5166452;28;20463;-50
2023/03/21 12:21:14;;;;;;;24.63;15.00;;;13.10;99.90;;;;;;5161870;28;20462;-50
2023/03/21 12:24:10;;;;;;;24.10;14.77;;;13.30;99.90;;;;;;5168275;28;20464;-51
2023/03/21 12:27:07;;;;;;;21.30;14.43;;;13.60;99.90;;;;;;5166277;28;20447;-50
2023/03/21 12:30:23;;;;;;;31.70;14.87;;;13.90;99.90;;;;;;5168005;28;21034;-50
2023/03/21 12:33:52;;;;;;;20.10;14.00;;;13.90;99.90;;;;;;5168097;28;20951;-50
2023/03/21 12:36:40;;;;;;;23.23;15.07;;;14.00;99.90;;;;;;5165132;28;20453;-50
2023/03/21 12:39:17;;;;;;;22.37;14.13;;;14.00;99.90;;;;;;5176117;28;20475;-50
2023/03/21 12:42:13;;;;;;;22.93;15.20;;;13.70;99.90;;;;;;5165536;28;20443;-49
2023/03/21 12:45:08;;;;;;;22.70;15.37;;;13.40;99.90;;;;;;5157119;28;20523;-50
2023/03/21 12:47:44;;;;;;;22.37;15.53;;;13.30;99.90;;;;;;5167333;28;20475;-49
2023/03/21 12:50:37;;;;;;;26.20;14.70;;;13.20;99.90;;;;;;5164539;28;20558;-49
2023/03/21 12:53:45;;;;;;;21.77;16.20;;;13.40;99.90;;;;;;5160221;28;20467;-50
2023/03/21 12:56:29;;;;;;;24.37;16.40;;;13.40;99.90;;;;;;5165471;28;20456;-50
2023/03/21 12:59:32;;;;;;;25.03;15.90;;;13.00;99.90;;;;;;5162370;28;20531;-50
2023/03/21 13:02:16;;;;;;;19.37;14.67;;;12.70;99.90;;;;;;5156843;28;20431;-49
2023/03/21 13:05:12;;;;;;;27.33;14.90;;;12.60;99.90;;;;;;5157002;28;20436;-49
2023/03/21 13:07:51;;;;;;;22.97;15.17;;;12.80;99.90;;;;;;5157394;28;20449;-51
2023/03/21 13:10:23;;;;;;;21.80;15.47;;;12.60;99.90;;;;;;5162608;28;21134;-52
2023/03/21 13:13:08;;;;;;;28.33;16.37;;;12.40;99.90;;;;;;5166862;28;20455;-51
2023/03/21 13:15:49;;;;;;;26.67;16.77;;;12.30;99.90;;;;;;5165906;28;20488;-51
2023/03/21 13:18:31;;;;;;;27.70;15.60;;;12.20;99.90;;;;;;5158738;28;20475;-51
2023/03/21 13:21:24;;;;;;;19.60;14.77;;;12.20;99.90;;;;;;5166649;28;20471;-51